Time;durP1;ratioP1;P1;durP2;ratioP2;P2;SDS_P1;SDS_P2;PMS_P1;PMS_P2;Temp;Humidity;BMP_temperature;BMP_pressure;BME280_temperature;BME280_humidity;BME280_pressure;Samples;Min_cycle;Max_cycle;Signal;HPM_P1;HPM_P2
2022/11/08 00:01:32;;;;;;;;;;;20.30;67.60;;;;;;6103651;23;19916;-64
2022/11/08 00:04:00;;;;;;;;;;;20.30;66.60;;;;;;6125483;23;19943;-64
2022/11/08 05:53:53;;;;;;;;;;;21.40;66.40;;;;;;6062427;23;20009;-64
2022/11/08 05:56:20;;;;;;;;;;;21.30;64.90;;;;;;6064947;23;19989;-63
2022/11/08 05:58:47;;;;;;;;;;;21.30;65.40;;;;;;6064436;23;19925;-64
2022/11/08 06:01:14;;;;;;;;;;;21.30;66.20;;;;;;6063191;23;20299;-64
2022/11/08 06:03:41;;;;;;;;;;;21.30;65.50;;;;;;6063223;23;19909;-64
2022/11/08 06:06:08;;;;;;;;;;;21.30;66.40;;;;;;6064530;23;19962;-64
2022/11/08 06:08:35;;;;;;;;;;;21.30;66.50;;;;;;6062919;23;19916;-64
2022/11/08 06:11:03;;;;;;;;;;;21.30;67.30;;;;;;6063175;23;19937;-64
2022/11/08 06:13:29;;;;;;;;;;;21.30;66.70;;;;;;6064647;23;19909;-64
2022/11/08 06:15:58;;;;;;;;;;;21.30;66.90;;;;;;6064282;23;20305;-64
2022/11/08 06:18:25;;;;;;;;;;;21.20;67.60;;;;;;6063638;23;19917;-64
2022/11/08 06:20:51;;;;;;;;;;;21.20;67.80;;;;;;6064003;23;19936;-62
2022/11/08 06:23:18;;;;;;;;;;;21.20;68.40;;;;;;6062305;23;20258;-62
2022/11/08 06:25:47;;;;;;;;;;;21.20;68.50;;;;;;6064190;23;20405;-62
2022/11/08 06:28:14;;;;;;;;;;;21.20;68.50;;;;;;6064096;23;19909;-62
2022/11/08 06:30:41;;;;;;;;;;;21.20;67.70;;;;;;6063936;23;19913;-62
2022/11/08 06:33:07;;;;;;;;;;;21.20;67.90;;;;;;6064263;23;19910;-62
2022/11/08 06:35:34;;;;;;;;;;;21.20;68.40;;;;;;6064139;23;19910;-63
2022/11/08 06:38:01;;;;;;;;;;;21.20;67.70;;;;;;6063617;23;19989;-63
2022/11/08 06:40:27;;;;;;;;;;;21.10;66.70;;;;;;6062528;23;19919;-62
2022/11/08 06:42:54;;;;;;;;;;;21.10;66.80;;;;;;6061718;23;19909;-62
2022/11/08 06:45:20;;;;;;;;;;;21.10;66.30;;;;;;6063541;23;19959;-63
2022/11/08 06:47:47;;;;;;;;;;;21.00;66.00;;;;;;6064024;23;19905;-62
2022/11/08 06:50:14;;;;;;;;;;;21.00;65.20;;;;;;6063623;23;19932;-62
2022/11/08 06:52:40;;;;;;;;;;;21.00;65.60;;;;;;6091589;23;20158;-64
2022/11/08 06:55:07;;;;;;;;;;;21.00;66.10;;;;;;6121871;23;19992;-63
2022/11/08 06:57:34;;;;;;;;;;;20.90;66.30;;;;;;6121871;23;19913;-63
2022/11/08 07:00:00;;;;;;;;;;;20.90;66.00;;;;;;6121832;23;19909;-63
2022/11/08 07:02:27;;;;;;;;;;;20.90;66.00;;;;;;6122134;23;19937;-62
2022/11/08 07:04:54;;;;;;;;;;;20.80;66.60;;;;;;6122098;23;20328;-62
2022/11/08 07:07:20;;;;;;;;;;;20.90;67.40;;;;;;6121922;23;19966;-63
2022/11/08 07:09:47;;;;;;;;;;;20.80;66.60;;;;;;6121349;23;19960;-63
2022/11/08 07:12:13;;;;;;;;;;;20.80;67.30;;;;;;6121728;23;19931;-62
2022/11/08 07:14:40;;;;;;;;;;;20.80;66.60;;;;;;6122031;23;19937;-62
2022/11/08 07:17:07;;;;;;;;;;;20.80;66.80;;;;;;6121796;23;19917;-63
2022/11/08 07:19:33;;;;;;;;;;;20.80;66.00;;;;;;6121765;23;20336;-63
2022/11/08 07:22:00;;;;;;;;;;;20.80;66.20;;;;;;6121587;23;19972;-62
2022/11/08 07:24:26;;;;;;;;;;;20.70;66.70;;;;;;6121914;23;19936;-62
2022/11/08 07:26:53;;;;;;;;;;;20.70;66.70;;;;;;6122466;23;19941;-62
2022/11/08 07:29:20;;;;;;;;;;;20.70;66.70;;;;;;6121639;23;19909;-63
2022/11/08 07:31:46;;;;;;;;;;;20.60;67.00;;;;;;6121723;23;19936;-63
2022/11/08 07:34:13;;;;;;;;;;;20.60;66.90;;;;;;6121642;23;19983;-63
2022/11/08 07:36:39;;;;;;;;;;;20.60;66.80;;;;;;6121486;23;19913;-63
2022/11/08 07:39:06;;;;;;;;;;;20.50;66.30;;;;;;6121662;23;19952;-63
2022/11/08 07:41:33;;;;;;;;;;;20.50;66.80;;;;;;6120032;23;19909;-62
2022/11/08 07:43:59;;;;;;;;;;;20.50;67.60;;;;;;6120815;23;19913;-63
2022/11/08 07:46:26;;;;;;;;;;;20.50;68.10;;;;;;6120878;23;19920;-63
2022/11/08 07:48:52;;;;;;;;;;;20.50;67.70;;;;;;6121738;23;19937;-62
2022/11/08 07:51:19;;;;;;;;;;;20.50;68.10;;;;;;6121099;23;20232;-63
2022/11/08 07:53:45;;;;;;;;;;;20.50;68.90;;;;;;6116839;23;19921;-63
2022/11/08 07:56:12;;;;;;;;;;;20.40;68.90;;;;;;6120972;23;19916;-62
2022/11/08 07:58:39;;;;;;;;;;;20.50;69.50;;;;;;6123247;23;19917;-63
2022/11/08 08:01:05;;;;;;;;;;;20.40;69.70;;;;;;6124049;23;19905;-63
2022/11/08 08:03:32;;;;;;;;;;;20.40;69.90;;;;;;6123660;23;19963;-63
2022/11/08 08:05:59;;;;;;;;;;;20.40;69.60;;;;;;6123626;23;19909;-63
2022/11/08 08:08:25;;;;;;;;;;;20.30;69.70;;;;;;6122264;23;19909;-63
2022/11/08 08:10:55;;;;;;;;;;;20.30;70.10;;;;;;6123186;23;19917;-62
2022/11/08 08:13:22;;;;;;;;;;;20.30;70.40;;;;;;6123727;23;19909;-64
2022/11/08 08:15:48;;;;;;;;;;;20.30;70.40;;;;;;6123456;23;19912;-62
2022/11/08 08:18:18;;;;;;;;;;;20.30;70.10;;;;;;6123327;23;19987;-62
2022/11/08 08:20:45;;;;;;;;;;;20.30;69.40;;;;;;6123724;23;19992;-64
2022/11/08 08:23:12;;;;;;;;;;;20.20;69.30;;;;;;6097978;23;19995;-63
2022/11/08 08:25:38;;;;;;;;;;;20.20;69.50;;;;;;6123350;23;19980;-66
2022/11/08 08:28:05;;;;;;;;;;;20.20;69.30;;;;;;6097655;23;19909;-64
2022/11/08 08:30:33;;;;;;;;;;;20.20;69.40;;;;;;6097463;23;19926;-64
2022/11/08 08:33:06;;;;;;;;;;;20.20;69.70;;;;;;6123821;23;19991;-63
2022/11/08 08:35:34;;;;;;;;;;;20.20;69.20;;;;;;6123333;23;19980;-63
2022/11/08 08:38:00;;;;;;;;;;;20.20;69.20;;;;;;6123774;23;19929;-63
2022/11/08 08:40:27;;;;;;;;;;;20.20;69.40;;;;;;6123338;23;19909;-63
2022/11/08 08:42:54;;;;;;;;;;;20.10;69.80;;;;;;6122965;23;19967;-63
2022/11/08 08:45:20;;;;;;;;;;;20.10;69.70;;;;;;6123499;23;19988;-62
2022/11/08 08:47:51;;;;;;;;;;;20.10;69.90;;;;;;6123177;23;19909;-63
2022/11/08 08:50:18;;;;;;;;;;;20.00;70.10;;;;;;6123390;23;19905;-62
2022/11/08 08:52:45;;;;;;;;;;;20.00;70.00;;;;;;6121121;23;19931;-63
2022/11/08 08:55:12;;;;;;;;;;;20.00;70.20;;;;;;6123160;23;19952;-62
2022/11/08 08:57:38;;;;;;;;;;;20.00;70.60;;;;;;6123418;23;20043;-63
2022/11/08 09:00:05;;;;;;;;;;;20.00;70.40;;;;;;6123246;23;19909;-62
2022/11/08 09:02:32;;;;;;;;;;;19.90;70.10;;;;;;6123073;23;19909;-62
2022/11/08 09:04:58;;;;;;;;;;;19.90;70.20;;;;;;6123539;23;19909;-62
2022/11/08 09:07:25;;;;;;;;;;;19.90;70.80;;;;;;6122068;23;19995;-62
2022/11/08 09:09:51;;;;;;;;;;;19.90;70.80;;;;;;6122705;23;19941;-61
2022/11/08 09:12:18;;;;;;;;;;;19.90;70.60;;;;;;6123350;23;19909;-62
2022/11/08 09:14:45;;;;;;;;;;;19.90;70.80;;;;;;6122968;23;19928;-61
2022/11/08 09:17:11;;;;;;;;;;;19.90;70.70;;;;;;6122607;23;19940;-64
2022/11/08 09:19:38;;;;;;;;;;;19.90;71.20;;;;;;6123315;23;19913;-61
2022/11/08 09:22:04;;;;;;;;;;;19.90;71.00;;;;;;6122494;23;19909;-61
2022/11/08 09:24:33;;;;;;;;;;;19.90;71.00;;;;;;6123066;23;19923;-61
2022/11/08 09:27:02;;;;;;;;;;;19.90;70.90;;;;;;6123362;23;19909;-62
2022/11/08 09:29:32;;;;;;;;;;;19.90;71.50;;;;;;6122709;23;20225;-61
2022/11/08 09:31:59;;;;;;;;;;;19.80;71.40;;;;;;6122799;23;19916;-61
2022/11/08 09:34:25;;;;;;;;;;;19.80;71.50;;;;;;6122490;23;19919;-62
2022/11/08 09:36:52;;;;;;;;;;;19.80;71.80;;;;;;6123064;23;19905;-62
2022/11/08 09:39:19;;;;;;;;;;;19.80;72.00;;;;;;6122826;23;19924;-62
2022/11/08 09:42:04;;;;;;;;;;;19.80;72.00;;;;;;6122704;23;19909;-61
2022/11/08 09:44:39;;;;;;;;;;;19.80;72.20;;;;;;6122698;23;20340;-64
2022/11/08 09:47:29;;;;;;;;;;;19.70;72.50;;;;;;6123036;23;19971;-63
2022/11/08 09:49:59;;;;;;;;;;;19.70;72.80;;;;;;6114843;23;19960;-63
2022/11/08 09:52:26;;;;;;;;;;;19.70;72.60;;;;;;6125955;23;19920;-63
2022/11/08 09:54:54;;;;;;;;;;;19.70;72.80;;;;;;6100553;23;19905;-63
2022/11/08 09:57:25;;;;;;;;;;;19.70;73.00;;;;;;6100342;23;19909;-63
2022/11/08 10:00:02;;;;;;;;;;;19.70;72.80;;;;;;6099967;23;19915;-64
2022/11/08 10:02:33;;;;;;;;;;;19.70;73.00;;;;;;6099643;23;20271;-64
2022/11/08 10:05:00;;;;;;;;;;;19.70;73.20;;;;;;6126200;23;19908;-63
2022/11/08 10:07:45;;;;;;;;;;;19.70;73.40;;;;;;6125885;23;19905;-64
2022/11/08 10:10:23;;;;;;;;;;;19.70;73.10;;;;;;6126096;23;19916;-63
2022/11/08 10:13:10;;;;;;;;;;;19.70;73.50;;;;;;6126255;23;20235;-64
2022/11/08 10:15:46;;;;;;;;;;;19.60;73.40;;;;;;6115124;23;19917;-64
2022/11/08 10:18:12;;;;;;;;;;;19.60;73.70;;;;;;6125263;23;20248;-63
2022/11/08 10:20:48;;;;;;;;;;;19.60;73.70;;;;;;6126375;23;19909;-63
2022/11/08 10:23:35;;;;;;;;;;;19.50;73.80;;;;;;6125578;23;19905;-63
2022/11/08 10:26:05;;;;;;;;;;;19.60;73.80;;;;;;6125212;23;19909;-63
2022/11/08 10:28:33;;;;;;;;;;;19.60;73.70;;;;;;6100110;23;19913;-63
2022/11/08 10:31:00;;;;;;;;;;;19.60;73.50;;;;;;6125967;23;19944;-63
2022/11/08 10:58:41;;;;;;;;;;;19.60;74.00;;;;;;6108574;23;19944;-64
2022/11/08 11:01:18;;;;;;;;;;;19.50;73.70;;;;;;6125885;23;20303;-64
2022/11/08 11:03:45;;;;;;;;;;;19.60;73.60;;;;;;6125434;23;19905;-64
2022/11/08 11:06:31;;;;;;;;;;;19.50;73.90;;;;;;6099871;23;19905;-64
2022/11/08 11:08:58;;;;;;;;;;;19.50;74.00;;;;;;6125157;23;19979;-64
2022/11/08 11:11:26;;;;;;;;;;;19.60;74.10;;;;;;6125565;23;20370;-64
2022/11/08 11:14:25;;;;;;;;;;;19.50;74.10;;;;;;6125294;23;19932;-64
2022/11/08 11:17:08;;;;;;;;;;;19.50;74.20;;;;;;6092287;23;19905;-64
2022/11/08 11:19:34;;;;;;;;;;;19.60;74.10;;;;;;6100239;23;19932;-64
2022/11/08 11:22:05;;;;;;;;;;;19.60;74.40;;;;;;6099552;23;19936;-64
2022/11/08 11:24:33;;;;;;;;;;;19.50;74.60;;;;;;6099418;23;19964;-64
2022/11/08 11:27:01;;;;;;;;;;;19.50;74.80;;;;;;6125041;23;20308;-64
2022/11/08 11:29:31;;;;;;;;;;;19.50;74.80;;;;;;6099129;23;19944;-64
2022/11/08 11:31:58;;;;;;;;;;;19.50;74.80;;;;;;6125528;23;19987;-64
2022/11/08 11:34:34;;;;;;;;;;;19.50;75.10;;;;;;6099718;23;19912;-64
2022/11/08 11:37:00;;;;;;;;;;;19.40;75.00;;;;;;6124923;23;20240;-64
2022/11/08 11:39:27;;;;;;;;;;;19.40;75.20;;;;;;6124854;23;19995;-64
2022/11/08 11:42:09;;;;;;;;;;;19.40;75.30;;;;;;6099420;23;20240;-64
2022/11/08 11:44:41;;;;;;;;;;;19.40;75.30;;;;;;6099553;23;19905;-64
2022/11/08 11:47:33;;;;;;;;;;;19.40;75.30;;;;;;6099426;23;19905;-64
2022/11/08 11:50:02;;;;;;;;;;;19.40;75.20;;;;;;6121763;23;19909;-64
2022/11/08 11:52:29;;;;;;;;;;;19.30;75.50;;;;;;6125207;23;19984;-64
2022/11/08 11:54:55;;;;;;;;;;;19.30;75.60;;;;;;6125554;23;19968;-64
2022/11/08 11:57:25;;;;;;;;;;;19.30;75.90;;;;;;6099555;23;19916;-64
2022/11/08 11:59:57;;;;;;;;;;;19.30;75.80;;;;;;6124914;23;19913;-64
2022/11/08 12:02:33;;;;;;;;;;;19.30;76.00;;;;;;6125388;23;19905;-64
2022/11/08 12:05:18;;;;;;;;;;;19.30;76.00;;;;;;6125155;23;20005;-64
2022/11/08 12:07:46;;;;;;;;;;;19.30;76.20;;;;;;6125051;23;20235;-64
2022/11/08 12:10:12;;;;;;;;;;;19.30;76.60;;;;;;6098912;23;19905;-64
2022/11/08 12:12:39;;;;;;;;;;;19.30;76.80;;;;;;6125047;23;19960;-64
2022/11/08 12:15:09;;;;;;;;;;;19.20;77.00;;;;;;6125117;23;19976;-64
2022/11/08 12:17:38;;;;;;;;;;;19.20;77.50;;;;;;6124808;23;19920;-64
2022/11/08 12:20:23;;;;;;;;;;;19.20;77.50;;;;;;6124657;23;19916;-64
2022/11/08 12:22:54;;;;;;;;;;;19.10;77.60;;;;;;6125053;23;19912;-64
2022/11/08 12:25:26;;;;;;;;;;;19.10;77.80;;;;;;6099284;23;19913;-64
2022/11/08 12:28:08;;;;;;;;;;;19.00;77.90;;;;;;6099219;23;19912;-64
2022/11/08 12:30:40;;;;;;;;;;;19.00;78.20;;;;;;6125184;23;19905;-64
2022/11/08 12:33:07;;;;;;;;;;;19.00;78.20;;;;;;6125235;23;19905;-64
2022/11/08 12:35:37;;;;;;;;;;;19.00;78.30;;;;;;6125394;23;19905;-64
2022/11/08 12:38:14;;;;;;;;;;;19.00;78.20;;;;;;6099231;23;19913;-64
2022/11/08 12:40:54;;;;;;;;;;;19.00;78.20;;;;;;6125232;23;19960;-64
2022/11/08 12:43:33;;;;;;;;;;;19.00;78.20;;;;;;6100138;23;19912;-64
2022/11/08 12:46:11;;;;;;;;;;;18.90;78.30;;;;;;6127110;23;19908;-64
2022/11/08 12:48:47;;;;;;;;;;;18.90;78.50;;;;;;6126348;23;20338;-64
2022/11/08 12:51:13;;;;;;;;;;;18.90;78.60;;;;;;6101057;23;19932;-64
2022/11/08 12:53:47;;;;;;;;;;;18.90;78.70;;;;;;6126667;23;19905;-64
2022/11/08 12:56:15;;;;;;;;;;;18.90;78.90;;;;;;6101693;23;19912;-64
2022/11/08 12:58:42;;;;;;;;;;;18.90;79.10;;;;;;6100352;23;20243;-64
2022/11/08 13:01:13;;;;;;;;;;;18.90;79.30;;;;;;6100965;23;20256;-64
2022/11/08 13:03:45;;;;;;;;;;;18.90;79.30;;;;;;6101269;23;19905;-64
2022/11/08 13:06:20;;;;;;;;;;;18.80;79.50;;;;;;6126668;23;20339;-64
2022/11/08 13:08:55;;;;;;;;;;;18.80;79.50;;;;;;6126220;23;19909;-64
2022/11/08 13:11:42;;;;;;;;;;;18.80;79.60;;;;;;6126809;23;20292;-64
2022/11/08 13:14:15;;;;;;;;;;;18.80;79.70;;;;;;6125930;23;19912;-64
2022/11/08 13:16:43;;;;;;;;;;;18.80;79.90;;;;;;6126829;23;19944;-64
2022/11/08 13:19:28;;;;;;;;;;;18.80;80.00;;;;;;6100590;23;19921;-64
2022/11/08 13:21:55;;;;;;;;;;;18.80;79.90;;;;;;6100650;23;19972;-64
2022/11/08 13:24:21;;;;;;;;;;;18.70;80.10;;;;;;6100752;23;20217;-64
2022/11/08 13:26:49;;;;;;;;;;;18.70;80.20;;;;;;6126387;23;19912;-64
2022/11/08 13:29:18;;;;;;;;;;;18.70;80.00;;;;;;6125973;23;19905;-64
2022/11/08 13:31:47;;;;;;;;;;;18.70;80.10;;;;;;6126440;23;19912;-64
2022/11/08 13:34:14;;;;;;;;;;;18.60;80.10;;;;;;6100698;23;19937;-64
2022/11/08 13:36:59;;;;;;;;;;;18.70;79.90;;;;;;6126376;23;19913;-64
2022/11/08 13:39:36;;;;;;;;;;;18.60;80.00;;;;;;6126000;23;19913;-64
2022/11/08 13:42:15;;;;;;;;;;;18.60;80.00;;;;;;6100571;23;19929;-64
2022/11/08 13:45:07;;;;;;;;;;;18.60;79.90;;;;;;6126497;23;19913;-64
2022/11/08 13:47:35;;;;;;;;;;;18.60;80.20;;;;;;6102275;23;20000;-64
2022/11/08 13:50:20;;;;;;;;;;;18.60;80.30;;;;;;6125865;23;19912;-64
2022/11/08 13:52:47;;;;;;;;;;;18.50;80.20;;;;;;6125970;23;19930;-64
2022/11/08 13:55:32;;;;;;;;;;;18.50;80.10;;;;;;6100376;23;20329;-64
2022/11/08 13:57:59;;;;;;;;;;;18.50;80.10;;;;;;6125875;23;19932;-64
2022/11/08 14:00:42;;;;;;;;;;;18.50;80.10;;;;;;6126258;23;19912;-64
2022/11/08 14:03:26;;;;;;;;;;;18.40;80.00;;;;;;6100970;23;19905;-64
2022/11/08 14:05:53;;;;;;;;;;;18.40;80.20;;;;;;6125720;23;19971;-64
2022/11/08 14:08:20;;;;;;;;;;;18.40;80.30;;;;;;6098836;23;19905;-64
2022/11/08 14:10:57;;;;;;;;;;;18.40;80.10;;;;;;6100142;23;19952;-64
2022/11/08 14:13:25;;;;;;;;;;;18.40;80.20;;;;;;6100549;23;20210;-64
2022/11/08 14:15:56;;;;;;;;;;;18.30;80.20;;;;;;6100532;23;19952;-64
2022/11/08 14:18:29;;;;;;;;;;;18.30;80.30;;;;;;6100042;23;19913;-64
2022/11/08 14:20:56;;;;;;;;;;;18.30;80.20;;;;;;6100163;23;19909;-64
2022/11/08 14:23:27;;;;;;;;;;;18.30;80.20;;;;;;6100203;23;19911;-64
2022/11/08 14:25:55;;;;;;;;;;;18.30;80.30;;;;;;6100349;23;19905;-64
2022/11/08 14:28:22;;;;;;;;;;;18.30;80.00;;;;;;6099904;23;19912;-64
2022/11/08 14:30:49;;;;;;;;;;;18.30;80.00;;;;;;6126160;23;19909;-64
2022/11/08 14:33:22;;;;;;;;;;;18.30;80.00;;;;;;6126126;23;19909;-64
2022/11/08 14:35:53;;;;;;;;;;;18.30;79.70;;;;;;6126363;23;19909;-64
2022/11/08 14:38:19;;;;;;;;;;;18.30;79.20;;;;;;6125679;23;19928;-64
2022/11/08 14:40:47;;;;;;;;;;;18.30;79.10;;;;;;6126178;23;19916;-64
2022/11/08 14:43:13;;;;;;;;;;;18.30;79.20;;;;;;6100045;23;20217;-64
2022/11/08 14:50:32;;;;;;;;;;;18.30;78.80;;;;;;6126120;23;19916;-64
2022/11/08 14:53:33;;;;;;;;;;;18.30;78.90;;;;;;6125666;23;19920;-64
2022/11/08 14:56:02;;;;;;;;;;;18.30;78.90;;;;;;6065122;23;19932;-63
2022/11/08 14:58:29;;;;;;;;;;;18.20;78.60;;;;;;6113979;23;19976;-64
2022/11/08 15:00:56;;;;;;;;;;;18.30;78.50;;;;;;6099511;23;20253;-64
2022/11/08 15:03:22;;;;;;;;;;;18.20;78.30;;;;;;6099830;23;19911;-64
2022/11/08 15:05:49;;;;;;;;;;;18.20;78.40;;;;;;6099792;23;19911;-64
2022/11/08 15:08:41;;;;;;;;;;;18.20;78.40;;;;;;6125177;23;19905;-63
2022/11/08 15:11:09;;;;;;;;;;;18.20;78.60;;;;;;6122745;23;19912;-64
2022/11/08 15:13:40;;;;;;;;;;;18.10;78.60;;;;;;6100122;23;19932;-64
2022/11/08 15:16:06;;;;;;;;;;;18.00;78.90;;;;;;6100044;23;20241;-64
2022/11/08 15:18:35;;;;;;;;;;;18.00;79.00;;;;;;6099524;23;19920;-64
2022/11/08 15:21:12;;;;;;;;;;;18.00;78.90;;;;;;6125617;23;20276;-64
2022/11/08 15:23:54;;;;;;;;;;;17.90;79.00;;;;;;6125269;23;19912;-64
2022/11/08 15:26:23;;;;;;;;;;;17.90;79.20;;;;;;6100474;23;19909;-64
2022/11/08 15:29:05;;;;;;;;;;;18.00;79.20;;;;;;6125340;23;20408;-64
2022/11/08 15:31:35;;;;;;;;;;;18.00;79.20;;;;;;6125418;23;19912;-64
2022/11/08 15:34:01;;;;;;;;;;;17.90;79.10;;;;;;6099936;23;20301;-64
2022/11/08 15:36:32;;;;;;;;;;;17.90;79.20;;;;;;6125309;23;19905;-64
2022/11/08 15:38:59;;;;;;;;;;;17.90;79.30;;;;;;6099374;23;19913;-64
2022/11/08 15:41:37;;;;;;;;;;;17.90;79.60;;;;;;6098278;23;19912;-64
2022/11/08 15:44:17;;;;;;;;;;;17.90;79.60;;;;;;6124968;23;19912;-64
2022/11/08 15:46:43;;;;;;;;;;;17.90;79.50;;;;;;6099161;23;20376;-64
2022/11/08 15:49:18;;;;;;;;;;;17.90;79.60;;;;;;6124923;23;20397;-64
2022/11/08 15:51:45;;;;;;;;;;;17.80;79.80;;;;;;6125317;23;19908;-64
2022/11/08 15:54:12;;;;;;;;;;;17.70;80.10;;;;;;6124941;23;19959;-64
2022/11/08 15:56:39;;;;;;;;;;;17.70;80.20;;;;;;6125062;23;19992;-64
2022/11/08 15:59:08;;;;;;;;;;;17.70;80.30;;;;;;6099172;23;19991;-64
2022/11/08 16:01:35;;;;;;;;;;;17.70;80.50;;;;;;6099511;23;19933;-64
2022/11/08 16:04:01;;;;;;;;;;;17.70;80.50;;;;;;6099605;23;19904;-64
2022/11/08 16:06:28;;;;;;;;;;;17.70;80.20;;;;;;6124817;23;19905;-64
2022/11/08 16:08:54;;;;;;;;;;;17.70;80.40;;;;;;6124502;23;19905;-64
2022/11/08 16:11:21;;;;;;;;;;;17.70;80.20;;;;;;6124901;23;20320;-64
2022/11/08 16:13:48;;;;;;;;;;;17.80;80.10;;;;;;6125353;23;19909;-64
2022/11/08 16:16:15;;;;;;;;;;;17.80;80.00;;;;;;6124961;23;19913;-64
2022/11/08 16:18:43;;;;;;;;;;;17.80;80.00;;;;;;6126496;23;19913;-64
2022/11/08 16:21:10;;;;;;;;;;;17.80;80.20;;;;;;6126744;23;19913;-64
2022/11/08 16:23:37;;;;;;;;;;;17.80;80.20;;;;;;6101465;23;20293;-64
2022/11/08 16:26:04;;;;;;;;;;;17.70;80.40;;;;;;6127264;23;19905;-64
2022/11/08 16:28:34;;;;;;;;;;;17.70;80.50;;;;;;6101238;23;19963;-64
2022/11/08 16:31:01;;;;;;;;;;;17.70;80.90;;;;;;6126788;23;20211;-64
2022/11/08 16:33:28;;;;;;;;;;;17.70;81.00;;;;;;6101426;23;19916;-64
2022/11/08 16:35:55;;;;;;;;;;;17.60;81.20;;;;;;6101256;23;19915;-64
2022/11/08 16:38:29;;;;;;;;;;;17.60;81.30;;;;;;6126931;23;19947;-64
2022/11/08 16:40:56;;;;;;;;;;;17.50;81.40;;;;;;6101088;23;19992;-64
2022/11/08 16:43:22;;;;;;;;;;;17.50;81.60;;;;;;6126982;23;20907;-64
2022/11/08 16:45:49;;;;;;;;;;;17.50;81.80;;;;;;6126776;23;19952;-64
2022/11/08 16:48:16;;;;;;;;;;;17.50;81.90;;;;;;6126141;23;19935;-64
2022/11/08 16:50:43;;;;;;;;;;;17.50;82.00;;;;;;6100526;23;19917;-64
2022/11/08 16:53:19;;;;;;;;;;;17.50;82.10;;;;;;6126404;23;19984;-64
2022/11/08 16:55:45;;;;;;;;;;;17.50;82.30;;;;;;6101193;23;19912;-65
2022/11/08 16:58:12;;;;;;;;;;;17.40;82.50;;;;;;6126818;23;19913;-64
2022/11/08 17:00:39;;;;;;;;;;;17.30;82.70;;;;;;6126440;23;19904;-64
2022/11/08 17:03:06;;;;;;;;;;;17.20;82.90;;;;;;6126848;23;19985;-64
2022/11/08 17:05:33;;;;;;;;;;;17.20;83.20;;;;;;6101106;23;20255;-64
2022/11/08 17:07:59;;;;;;;;;;;17.20;83.30;;;;;;6126803;23;19917;-64
2022/11/08 17:10:27;;;;;;;;;;;17.10;83.10;;;;;;6126074;23;19912;-64
2022/11/08 17:12:53;;;;;;;;;;;17.10;83.10;;;;;;6126749;23;19905;-64
2022/11/08 17:15:24;;;;;;;;;;;17.10;83.20;;;;;;6100997;23;19905;-64
2022/11/08 17:17:50;;;;;;;;;;;17.10;83.40;;;;;;6100973;23;19920;-63
2022/11/08 17:20:18;;;;;;;;;;;17.00;83.20;;;;;;6126512;23;19905;-64
2022/11/08 17:22:45;;;;;;;;;;;17.10;83.30;;;;;;6100764;23;19929;-64
2022/11/08 17:25:13;;;;;;;;;;;17.00;83.10;;;;;;6100867;23;19911;-64
2022/11/08 17:27:40;;;;;;;;;;;17.00;83.40;;;;;;6100783;23;20039;-64
2022/11/08 17:30:07;;;;;;;;;;;17.00;83.40;;;;;;6099758;23;20213;-64
2022/11/08 17:32:34;;;;;;;;;;;17.00;83.40;;;;;;6125908;23;20317;-64
2022/11/08 17:35:02;;;;;;;;;;;17.00;83.40;;;;;;6126338;23;19909;-64
2022/11/08 17:37:28;;;;;;;;;;;17.00;83.60;;;;;;6126050;23;19917;-64
2022/11/08 17:39:55;;;;;;;;;;;17.00;83.50;;;;;;6126148;23;19912;-64
2022/11/08 17:42:22;;;;;;;;;;;17.00;83.60;;;;;;6126492;23;20236;-64
2022/11/08 17:44:49;;;;;;;;;;;17.00;83.40;;;;;;6126389;23;19905;-63
2022/11/08 17:47:15;;;;;;;;;;;17.00;83.50;;;;;;6126285;23;19924;-63
2022/11/08 17:49:42;;;;;;;;;;;17.00;83.70;;;;;;6126038;23;19980;-65
2022/11/08 17:52:09;;;;;;;;;;;17.00;83.70;;;;;;6126104;23;20020;-63
2022/11/08 17:54:35;;;;;;;;;;;17.00;83.70;;;;;;6123582;23;19905;-63
2022/11/08 17:57:02;;;;;;;;;;;17.00;84.00;;;;;;6125473;23;19905;-63
2022/11/08 17:59:29;;;;;;;;;;;17.00;83.90;;;;;;6125016;23;20153;-63
2022/11/08 18:01:56;;;;;;;;;;;17.00;84.10;;;;;;6125485;23;19905;-64
2022/11/08 18:04:22;;;;;;;;;;;17.00;83.90;;;;;;6125333;23;20248;-62
2022/11/08 18:06:49;;;;;;;;;;;17.00;83.90;;;;;;6125531;23;19905;-63
2022/11/08 18:09:15;;;;;;;;;;;16.90;83.80;;;;;;6125376;23;19905;-63
2022/11/08 18:11:46;;;;;;;;;;;17.00;83.90;;;;;;6125493;23;19905;-63
2022/11/08 18:14:19;;;;;;;;;;;17.00;83.90;;;;;;6125760;23;20298;-62
2022/11/08 18:16:49;;;;;;;;;;;17.10;83.90;;;;;;6125695;23;20273;-65
2022/11/08 18:19:16;;;;;;;;;;;17.00;83.90;;;;;;6125967;23;19913;-63
2022/11/08 18:21:42;;;;;;;;;;;17.10;84.00;;;;;;6126279;23;20331;-65
2022/11/08 18:24:09;;;;;;;;;;;17.10;83.90;;;;;;6126205;23;19905;-65
2022/11/08 18:26:35;;;;;;;;;;;17.10;84.20;;;;;;6126333;23;19996;-65
2022/11/08 18:29:02;;;;;;;;;;;17.10;84.30;;;;;;6125427;23;20399;-65
2022/11/08 18:31:29;;;;;;;;;;;17.10;84.70;;;;;;6076021;23;20320;-65
2022/11/08 18:33:56;;;;;;;;;;;17.10;84.70;;;;;;6125860;23;19960;-64
